ADDS TAF Board (Experimental) INFO

IDs: Format: Expanded Condensed

Updated at: 1459 UTC 26 Nov 2014

KBWI - Baltimore-Washington, MD, US

Issued at 1454 UTC 26 Nov 2014
Time1454Z26/15Z26/16Z26/17Z26/18Z26/19Z26/20Z26/21Z26/22Z26/23Z27/00Z27/01Z27/02Z27/03Z
TypeOBSPRVLPRVLPRVLPRVLPRVLPRVLPRVLPRVLPRVLPRVLPRVLPRVLPRVL
VIS322222222>6>6>6>6>6
CIG88888888888888
CoverOVCOVCOVCOVCOVCOVCOVCOVCOVCOVCOVCOVCOVCOVC
FltCatIFRIFRIFRIFRIFRIFRIFRIFRIFRIFRIFRIFRIFRIFR
WXRA BRRA SNRA SNRA SN-RA -SN-RA -SN-RA -SN-RA -SN-RA -SN----------
WDir350303030360360360360360320320320320320
WSpd612121212121212121212121212
WGst--------2020202020----------
R04/22
XWnd4111777771111111111
XGst--------1111111111----------
HWnd4121212101010101044444
HGst--------1717171717----------
R10/28
XWnd6111111121212121299999
XGst--------2020202020----------
HWnd-1555-1-1-1-1-1-8-8-8-8-8
HGst---------1-1-1-1-1----------
R15/33
XWnd311111177777-1-1-1-1-1
XGst--------1212121212----------
HWnd-5-5-5-5-10-10-10-10-10-12-12-12-12-12
HGst---------16-16-16-16-16----------
Raw TAF
KBWI 261454Z 2615/2718 03012KT 2SM RASN OVC008
  FM261800 36012G20KT 2SM -RASN OVC008
  FM262300 32012KT P6SM OVC008
  FM270400 31008KT P6SM BKN050
  FM270900 31004KT P6SM OVC060


Raw METAR
KBWI 261454Z 35006KT 3SM RA BR BKN008 OVC013 04/02 A3008 RMK AO2 PRESRR SLP185 P0015 60037 T00390022 58003
KBWI 261427Z 04010KT 3SM RA BR BKN008 OVC015 04/02 A3005 RMK AO2 PRESFR P0010
KBWI 261358Z 02005KT 2 1/2SM R10/3000VP6000FT RA BR BKN008 OVC015 05/04 A3011 RMK AO2 P0001
KBWI 261354Z VRB03KT 2 1/2SM R10/5500VP6000FT RA BR SCT008 OVC013 05/03 A3011 RMK AO2 PLB12E19 SLP196 P0011 T00500033

TAF Board Legend

Hazard VFR MVFR IFR LIFR
Visibility (sm) >5 3≤X≤5 1≤X<3 <1
Ceiling (100 ft) >30 10≤X≤30 5≤X<10 <5
Wind Speed (kt) <10 10≤X<20 20≤X<30 ≥30
Wind Gust (kt) <15 15≤X<25 25≤X<35 ≥35
Weather No Wx Reported VCTS,-TS,-FZRA TS,FZRA +TS,+FZRA


Page loaded:  14:59 UTC  |   06:59 AM Pacific  |   07:59 AM Mountain  |   08:59 AM Central  |   09:59 AM Eastern

 

ADVISORIES

FORECASTS

FORECASTS

OBSERVATIONS

USER TOOLS

ABOUT US